Time;durP1;ratioP1;P1;durP2;ratioP2;P2;SDS_P1;SDS_P2;PMS_P1;PMS_P2;Temp;Humidity;BMP_temperature;BMP_pressure;BME280_temperature;BME280_humidity;BME280_pressure;Samples;Min_cycle;Max_cycle;Signal;HPM_P1;HPM_P2
2022/11/22 00:02:05;;;;;;;11.48;5.53;;;6.30;99.90;;;;;;5096704;28;20119;-88
2022/11/22 00:04:34;;;;;;;12.13;5.18;;;6.30;99.90;;;;;;5115365;28;20028;-89
2022/11/22 00:07:01;;;;;;;10.75;4.47;;;6.30;99.90;;;;;;5114968;28;20047;-90
2022/11/22 00:09:29;;;;;;;8.98;4.72;;;6.30;99.90;;;;;;5086113;28;20143;-89
2022/11/22 00:11:55;;;;;;;12.00;4.72;;;6.30;99.90;;;;;;5100207;28;20028;-89
2022/11/22 00:14:21;;;;;;;10.75;4.93;;;6.30;99.90;;;;;;5093850;28;20028;-88
2022/11/22 00:16:49;;;;;;;10.88;4.82;;;6.30;99.90;;;;;;5098757;28;20035;-89
2022/11/22 00:19:15;;;;;;;15.88;6.85;;;6.30;99.90;;;;;;5100154;28;20035;-89
2022/11/22 00:21:41;;;;;;;9.77;5.28;;;6.40;99.90;;;;;;5095742;28;20027;-89
2022/11/22 00:24:07;;;;;;;11.98;5.63;;;6.30;99.90;;;;;;5087933;28;20490;-88
2022/11/22 00:26:42;;;;;;;19.90;6.25;;;6.40;99.90;;;;;;5127210;28;20031;-90
2022/11/22 00:29:09;;;;;;;15.02;6.00;;;6.40;99.90;;;;;;5086290;28;20067;-89
2022/11/22 00:31:35;;;;;;;8.95;5.28;;;6.40;99.90;;;;;;5098192;28;20035;-88
2022/11/22 00:34:00;;;;;;;8.73;4.50;;;6.40;99.90;;;;;;5116136;28;20077;-89
2022/11/22 00:36:26;;;;;;;9.27;5.25;;;6.50;99.90;;;;;;5095500;28;20476;-89
2022/11/22 00:39:04;;;;;;;9.05;4.60;;;6.50;99.90;;;;;;5097304;28;20126;-90
2022/11/22 00:41:30;;;;;;;9.65;4.47;;;6.50;99.90;;;;;;5111984;28;20024;-90
2022/11/22 00:43:57;;;;;;;7.82;5.63;;;6.50;99.90;;;;;;5103391;28;20043;-89
2022/11/22 00:46:32;;;;;;;12.30;5.45;;;6.50;99.90;;;;;;5122621;28;20032;-89
2022/11/22 00:49:11;;;;;;;12.10;6.40;;;6.50;99.90;;;;;;5096583;28;20479;-88
2022/11/22 00:51:40;;;;;;;11.40;5.55;;;6.50;99.90;;;;;;5112405;28;20031;-88
2022/11/22 00:54:08;;;;;;;9.70;5.20;;;6.60;99.90;;;;;;5103610;28;20028;-89
2022/11/22 00:56:37;;;;;;;8.48;5.05;;;6.60;99.90;;;;;;5099293;28;20101;-88
2022/11/22 00:59:08;;;;;;;10.02;5.55;;;6.60;99.90;;;;;;5091691;28;20034;-88
2022/11/22 01:01:39;;;;;;;10.38;4.55;;;6.60;99.90;;;;;;5108808;28;20048;-88
2022/11/22 01:04:05;;;;;;;7.57;4.65;;;6.60;99.90;;;;;;5088865;28;20086;-88
2022/11/22 01:06:44;;;;;;;9.32;4.85;;;6.60;99.90;;;;;;5092908;28;20036;-89
2022/11/22 01:12:03;;;;;;;10.60;4.97;;;6.60;99.90;;;;;;5127028;27;20509;-89
2022/11/22 01:14:29;;;;;;;10.95;5.22;;;6.60;99.90;;;;;;5105207;28;20034;-89
2022/11/22 01:16:57;;;;;;;7.63;4.57;;;6.60;99.90;;;;;;5098346;28;20111;-88
2022/11/22 01:19:23;;;;;;;8.52;4.60;;;6.60;99.90;;;;;;5116598;28;20115;-89
2022/11/22 01:21:49;;;;;;;8.82;5.30;;;6.50;99.90;;;;;;5111808;28;20110;-89
2022/11/22 01:24:29;;;;;;;7.78;4.35;;;6.60;99.90;;;;;;5102609;28;20040;-88
2022/11/22 01:26:58;;;;;;;8.48;5.10;;;6.60;99.90;;;;;;5105602;28;20036;-88
2022/11/22 01:29:24;;;;;;;9.18;5.45;;;6.50;99.90;;;;;;5113590;28;20376;-90
2022/11/22 01:31:49;;;;;;;8.50;4.95;;;6.50;99.90;;;;;;5119085;27;20048;-88
2022/11/22 01:34:15;;;;;;;12.18;5.97;;;6.50;99.90;;;;;;5103891;28;20031;-88
2022/11/22 01:36:43;;;;;;;12.10;5.32;;;6.60;99.90;;;;;;5098063;28;20032;-89
2022/11/22 01:39:12;;;;;;;8.10;4.43;;;6.60;99.90;;;;;;5098914;28;20043;-89
2022/11/22 01:41:57;;;;;;;8.30;5.15;;;6.60;99.90;;;;;;5116667;28;20047;-88
2022/11/22 01:44:31;;;;;;;12.02;5.35;;;6.50;99.90;;;;;;5098327;28;20498;-89
2022/11/22 01:47:02;;;;;;;8.38;4.80;;;6.50;99.90;;;;;;5099412;28;20059;-89
2022/11/22 01:49:28;;;;;;;11.32;5.30;;;6.40;99.90;;;;;;5118352;27;20066;-88
2022/11/22 01:52:02;;;;;;;8.35;4.63;;;6.40;99.90;;;;;;5101457;28;20055;-88
2022/11/22 01:54:32;;;;;;;10.55;4.70;;;6.40;99.90;;;;;;5104525;28;20088;-89
2022/11/22 01:57:05;;;;;;;12.25;5.13;;;6.40;99.90;;;;;;5114425;28;20035;-91
2022/11/22 01:59:34;;;;;;;8.98;5.10;;;6.40;99.90;;;;;;5118109;27;20027;-89
2022/11/22 02:02:00;;;;;;;8.18;4.72;;;6.40;99.90;;;;;;5136693;27;20378;-89
2022/11/22 02:04:28;;;;;;;9.35;4.47;;;6.40;99.90;;;;;;5133594;27;20042;-89
2022/11/22 02:07:39;;;;;;;7.80;4.93;;;6.40;99.90;;;;;;5107435;27;20072;-88
2022/11/22 02:10:05;;;;;;;9.27;4.65;;;6.40;99.90;;;;;;5097789;28;20499;-89
2022/11/22 02:12:34;;;;;;;7.13;4.22;;;6.30;99.90;;;;;;5115785;28;20035;-88
2022/11/22 02:15:07;;;;;;;11.23;4.97;;;6.40;99.90;;;;;;5088084;28;20032;-89
2022/11/22 02:17:33;;;;;;;9.18;5.45;;;6.30;99.90;;;;;;5094242;28;20442;-89
2022/11/22 02:20:09;;;;;;;11.50;5.65;;;6.40;99.90;;;;;;5126536;27;20032;-89
2022/11/22 02:23:07;;;;;;;8.85;5.00;;;6.40;99.90;;;;;;5112193;28;20031;-90
2022/11/22 02:25:35;;;;;;;7.93;4.85;;;6.50;99.90;;;;;;5081165;28;20032;-88
2022/11/22 02:28:04;;;;;;;9.50;5.13;;;6.50;99.90;;;;;;5118823;27;20035;-87
2022/11/22 02:30:29;;;;;;;8.63;4.82;;;6.50;99.90;;;;;;5101545;28;20089;-88
2022/11/22 02:32:55;;;;;;;9.15;4.50;;;6.40;99.90;;;;;;5106341;27;20035;-88
2022/11/22 02:35:23;;;;;;;8.27;4.45;;;6.40;99.90;;;;;;5113242;28;20032;-88
2022/11/22 02:37:54;;;;;;;9.50;5.10;;;6.40;99.90;;;;;;5097368;28;20035;-88
2022/11/22 02:40:21;;;;;;;10.27;5.05;;;6.40;99.90;;;;;;5110591;28;20028;-86
2022/11/22 02:42:53;;;;;;;6.38;4.10;;;6.40;99.90;;;;;;5115518;28;20176;-89
2022/11/22 02:45:20;;;;;;;7.40;4.13;;;6.40;99.90;;;;;;5096918;28;20031;-90
2022/11/22 02:47:45;;;;;;;8.35;3.63;;;6.40;99.90;;;;;;5097427;28;20512;-89
2022/11/22 02:50:11;;;;;;;9.40;4.10;;;6.40;99.90;;;;;;5111253;28;20035;-88
2022/11/22 02:52:39;;;;;;;7.35;3.70;;;6.40;99.90;;;;;;5105387;28;20032;-89
2022/11/22 02:55:05;;;;;;;7.80;3.40;;;6.40;99.90;;;;;;5128976;27;20093;-88
2022/11/22 02:57:31;;;;;;;7.45;3.50;;;6.40;99.90;;;;;;5085648;28;20078;-89
2022/11/22 02:59:57;;;;;;;7.18;3.25;;;6.40;99.90;;;;;;5095011;28;20045;-88
2022/11/22 03:02:23;;;;;;;13.02;4.13;;;6.30;99.90;;;;;;5096070;28;20032;-88
2022/11/22 03:04:49;;;;;;;13.38;4.38;;;6.30;99.90;;;;;;5100568;27;20173;-88
2022/11/22 03:07:16;;;;;;;11.73;3.53;;;6.30;99.90;;;;;;5116942;28;20065;-88
2022/11/22 03:09:45;;;;;;;7.63;2.85;;;6.30;99.90;;;;;;5098310;28;20035;-90
2022/11/22 03:12:11;;;;;;;9.23;4.18;;;6.30;99.90;;;;;;5095971;28;20027;-89
2022/11/22 03:14:38;;;;;;;6.65;2.92;;;6.30;99.90;;;;;;5109159;28;20028;-88
2022/11/22 03:17:04;;;;;;;8.02;2.50;;;6.30;99.90;;;;;;5088099;28;20429;-88
2022/11/22 03:19:30;;;;;;;5.38;2.20;;;6.30;99.90;;;;;;5095823;28;20088;-90
2022/11/22 03:21:56;;;;;;;9.45;3.03;;;6.20;99.90;;;;;;5096542;28;20133;-89
2022/11/22 03:24:21;;;;;;;9.68;2.92;;;6.30;99.90;;;;;;5114911;27;20023;-89
2022/11/22 03:26:48;;;;;;;10.18;2.60;;;6.20;99.90;;;;;;5114616;28;20063;-89
2022/11/22 03:29:15;;;;;;;6.70;2.35;;;6.20;99.90;;;;;;5122229;27;20035;-88
2022/11/22 03:31:44;;;;;;;8.85;2.28;;;6.20;99.90;;;;;;5123501;27;20088;-89
2022/11/22 03:34:11;;;;;;;6.75;2.50;;;6.20;99.90;;;;;;5095635;28;20042;-88
2022/11/22 03:36:37;;;;;;;10.68;2.90;;;6.10;99.90;;;;;;5114458;28;20032;-88
2022/11/22 03:39:03;;;;;;;7.50;3.00;;;6.10;99.90;;;;;;5098554;28;20123;-89
2022/11/22 03:41:31;;;;;;;9.75;2.17;;;6.10;99.90;;;;;;5100567;28;20035;-89
2022/11/22 03:43:57;;;;;;;7.15;2.35;;;6.10;99.90;;;;;;5112825;27;20483;-88
2022/11/22 03:46:22;;;;;;;7.63;2.03;;;6.10;99.90;;;;;;5112539;28;20085;-88
2022/11/22 03:48:52;;;;;;;6.35;2.28;;;6.00;99.90;;;;;;5099333;28;20496;-88
2022/11/22 03:51:17;;;;;;;5.70;2.00;;;6.00;99.90;;;;;;5100979;28;20089;-88
2022/11/22 03:53:43;;;;;;;8.20;2.00;;;6.00;99.90;;;;;;5097027;28;20028;-88
2022/11/22 03:56:08;;;;;;;8.35;2.28;;;5.90;99.90;;;;;;5113315;28;20043;-88
2022/11/22 03:58:37;;;;;;;7.00;1.77;;;5.90;99.90;;;;;;5099895;28;20040;-89
2022/11/22 04:01:03;;;;;;;8.98;2.30;;;5.90;99.90;;;;;;5095788;28;20483;-90
2022/11/22 04:03:33;;;;;;;10.45;2.95;;;5.90;99.90;;;;;;5113726;28;20036;-89
2022/11/22 04:05:58;;;;;;;6.55;1.55;;;5.90;99.90;;;;;;5095533;28;20027;-89
2022/11/22 04:08:24;;;;;;;7.45;1.92;;;5.90;99.90;;;;;;5087063;28;20035;-88
2022/11/22 04:10:51;;;;;;;7.03;1.85;;;5.80;99.90;;;;;;5100825;28;20088;-89
2022/11/22 04:13:19;;;;;;;10.05;2.22;;;5.80;99.90;;;;;;5095758;28;20024;-89
2022/11/22 04:15:45;;;;;;;6.32;1.90;;;5.70;99.90;;;;;;5095891;28;20085;-89
2022/11/22 04:18:12;;;;;;;7.95;1.90;;;5.80;99.90;;;;;;5095685;28;20126;-89
2022/11/22 04:23:36;;;;;;;11.18;2.08;;;5.70;99.90;;;;;;5114132;28;20039;-89
2022/11/22 04:26:05;;;;;;;8.57;1.90;;;5.70;99.90;;;;;;5092414;28;20043;-90
2022/11/22 04:28:30;;;;;;;6.93;2.05;;;5.70;99.90;;;;;;5107964;28;20035;-89
2022/11/22 04:33:42;;;;;;;6.53;1.48;;;5.60;99.90;;;;;;5113805;28;20027;-89
2022/11/22 04:36:09;;;;;;;10.68;2.50;;;5.60;99.90;;;;;;5095646;28;20036;-89
2022/11/22 04:38:35;;;;;;;8.15;2.40;;;5.60;99.90;;;;;;5095859;28;20579;-89
2022/11/22 04:41:00;;;;;;;11.80;2.10;;;5.60;99.90;;;;;;5106683;28;20118;-89
2022/11/22 04:46:14;;;;;;;8.30;1.80;;;5.60;99.90;;;;;;5128543;27;20031;-89
2022/11/22 04:48:46;;;;;;;9.98;2.55;;;5.50;99.90;;;;;;5119577;27;20035;-89
2022/11/22 04:54:00;;;;;;;7.40;1.77;;;5.50;99.90;;;;;;5120991;27;20035;-90
2022/11/22 04:56:26;;;;;;;12.48;2.90;;;5.40;99.90;;;;;;5102913;27;20039;-89
2022/11/22 04:58:51;;;;;;;10.98;2.20;;;5.40;99.90;;;;;;5117805;27;20027;-89
2022/11/22 05:01:17;;;;;;;8.98;2.35;;;5.40;99.90;;;;;;5115600;27;20035;-90
2022/11/22 05:03:42;;;;;;;13.13;2.72;;;5.40;99.90;;;;;;5098150;28;20023;-90
2022/11/22 05:06:13;;;;;;;11.43;2.67;;;5.40;99.90;;;;;;5110776;28;20035;-90
2022/11/22 05:08:39;;;;;;;8.63;2.10;;;5.40;99.90;;;;;;5126531;27;20598;-90
2022/11/22 05:11:04;;;;;;;8.48;2.22;;;5.40;99.90;;;;;;5122203;27;20036;-90
2022/11/22 05:13:41;;;;;;;11.63;2.05;;;5.30;99.90;;;;;;5113743;28;20042;-88
2022/11/22 05:16:10;;;;;;;8.73;1.83;;;5.30;99.90;;;;;;5133568;27;20098;-89
2022/11/22 05:18:36;;;;;;;13.40;2.50;;;5.30;99.90;;;;;;5119176;27;20054;-89
2022/11/22 05:21:12;;;;;;;11.45;2.33;;;5.30;99.90;;;;;;5121418;27;20046;-90
2022/11/22 05:23:55;;;;;;;13.43;2.90;;;5.20;99.90;;;;;;5107911;28;20074;-90
2022/11/22 05:26:28;;;;;;;12.68;2.25;;;5.30;99.90;;;;;;5105273;28;20036;-90
2022/11/22 05:28:56;;;;;;;9.82;2.33;;;5.20;99.90;;;;;;5116988;28;20038;-90
2022/11/22 05:31:32;;;;;;;12.48;2.58;;;5.20;99.90;;;;;;5106936;27;20035;-89
2022/11/22 05:33:57;;;;;;;9.98;2.25;;;5.20;99.90;;;;;;5115598;27;20047;-90
2022/11/22 05:36:26;;;;;;;13.05;2.05;;;5.20;99.90;;;;;;5130889;27;20031;-89
2022/11/22 05:38:59;;;;;;;8.52;1.92;;;5.20;99.90;;;;;;5105269;27;20027;-89
2022/11/22 05:41:25;;;;;;;12.68;2.20;;;5.10;99.90;;;;;;5124561;27;20032;-88
2022/11/22 05:43:55;;;;;;;10.02;2.58;;;5.10;99.90;;;;;;5096704;28;20038;-89
2022/11/22 05:46:25;;;;;;;9.98;2.08;;;5.10;99.90;;;;;;5121488;27;20031;-90
2022/11/22 05:48:53;;;;;;;12.80;2.22;;;5.10;99.90;;;;;;5080473;28;20115;-90
2022/11/22 05:51:24;;;;;;;13.43;3.13;;;5.10;99.90;;;;;;5097596;28;20077;-89
2022/11/22 05:53:53;;;;;;;6.82;1.98;;;5.00;99.90;;;;;;5089776;28;20509;-90
2022/11/22 05:56:23;;;;;;;10.15;1.98;;;5.00;99.90;;;;;;5108216;27;20050;-90
2022/11/22 05:58:54;;;;;;;11.48;2.17;;;5.00;99.90;;;;;;5097234;28;20455;-89
2022/11/22 06:01:25;;;;;;;9.68;2.13;;;4.90;99.90;;;;;;5096781;28;20119;-92
2022/11/22 06:03:51;;;;;;;10.32;1.80;;;4.90;99.90;;;;;;5090598;28;20042;-89
2022/11/22 06:06:44;;;;;;;8.43;1.67;;;4.90;99.90;;;;;;5110159;27;20035;-89
2022/11/22 06:09:39;;;;;;;9.80;2.05;;;4.90;99.90;;;;;;5102043;28;20043;-90
2022/11/22 06:12:34;;;;;;;9.30;1.80;;;4.80;99.90;;;;;;5099202;27;20043;-89
2022/11/22 06:15:06;;;;;;;8.43;2.05;;;4.80;99.90;;;;;;5105732;27;20085;-91
2022/11/22 06:17:31;;;;;;;8.52;1.65;;;4.80;99.90;;;;;;5112793;28;20172;-90
2022/11/22 06:20:00;;;;;;;4.93;1.40;;;4.80;99.90;;;;;;5093209;28;20470;-90
2022/11/22 06:22:26;;;;;;;9.65;1.42;;;4.70;99.90;;;;;;5097031;28;20036;-89
2022/11/22 06:24:51;;;;;;;6.35;1.25;;;4.70;99.90;;;;;;5102273;28;20061;-90
2022/11/22 06:27:20;;;;;;;5.40;1.58;;;4.70;99.90;;;;;;5112855;28;20475;-91
2022/11/22 06:29:58;;;;;;;5.25;1.10;;;4.70;99.90;;;;;;5115120;28;20038;-90
2022/11/22 06:32:37;;;;;;;6.22;1.58;;;4.70;99.90;;;;;;5084361;28;20436;-90
2022/11/22 06:35:12;;;;;;;5.05;1.20;;;4.70;99.90;;;;;;5107968;28;20085;-91
2022/11/22 06:37:44;;;;;;;5.88;1.20;;;4.60;99.90;;;;;;5087114;28;20028;-90
2022/11/22 06:40:15;;;;;;;8.13;1.70;;;4.60;99.90;;;;;;5115222;27;20153;-90
2022/11/22 06:43:04;;;;;;;6.22;1.55;;;4.60;99.90;;;;;;5084952;28;20056;-91
2022/11/22 06:46:43;;;;;;;6.65;1.63;;;4.60;99.90;;;;;;5084814;28;20035;-90
2022/11/22 06:49:09;;;;;;;5.63;1.65;;;4.60;99.90;;;;;;4991864;28;20041;-89
2022/11/22 06:51:56;;;;;;;5.50;1.67;;;4.60;99.90;;;;;;5031143;28;20044;-89
2022/11/22 06:54:34;;;;;;;9.82;2.85;;;4.60;99.90;;;;;;5076779;28;20036;-90
2022/11/22 06:57:09;;;;;;;9.50;1.73;;;4.60;99.90;;;;;;5068494;28;20112;-89
2022/11/22 06:59:45;;;;;;;;;;;;;;;;;;;;;
2022/11/22 07:02:44;;;;;;;7.68;1.77;;;4.50;99.90;;;;;;5090400;28;20020;-89
2022/11/22 07:05:11;;;;;;;9.73;2.20;;;4.50;99.90;;;;;;5077044;28;20032;-89
2022/11/22 07:08:03;;;;;;;7.47;1.42;;;4.50;99.90;;;;;;5061710;28;20040;-90
2022/11/22 07:10:48;;;;;;;11.45;2.03;;;4.50;99.90;;;;;;5058929;28;20060;-89
2022/11/22 07:13:14;;;;;;;9.90;2.40;;;4.50;99.90;;;;;;5067622;28;20036;-89
2022/11/22 07:22:53;;;;;;;9.57;2.05;;;4.60;99.90;;;;;;5094376;28;20026;-89
2022/11/22 07:26:01;;;;;;;10.70;2.58;;;4.60;99.90;;;;;;5088107;28;20040;-89
2022/11/22 07:31:51;;;;;;;;;;;;;;;;;;;;;
2022/11/22 07:34:20;;;;;;;9.35;2.30;;;4.80;99.90;;;;;;5012700;28;20040;-89
2022/11/22 07:37:21;;;;;;;;;;;;;;;;;;;;;
2022/11/22 07:39:51;;;;;;;6.40;2.30;;;5.00;99.90;;;;;;5013028;28;20033;-89
2022/11/22 07:42:26;;;;;;;11.27;2.58;;;5.00;99.90;;;;;;5019140;28;20042;-89
2022/11/22 07:44:52;;;;;;;10.85;2.60;;;5.10;99.90;;;;;;5030679;28;20044;-89
2022/11/22 07:47:18;;;;;;;14.02;2.92;;;5.10;99.90;;;;;;4995092;28;20523;-89
2022/11/22 07:49:54;;;;;;;13.23;2.90;;;5.20;99.90;;;;;;5080656;28;20139;-90
2022/11/22 07:52:58;;;;;;;11.68;2.47;;;5.20;99.90;;;;;;5095597;28;20032;-89
2022/11/22 07:55:25;;;;;;;;;;;5.20;99.90;;;;;;5096577;28;20135;-89
2022/11/22 07:57:52;;;;;;;10.13;2.85;;;5.20;99.90;;;;;;5096154;28;19990;-89
2022/11/22 08:01:41;;;;;;;13.55;2.50;;;5.20;99.90;;;;;;5096284;28;20051;-89
2022/11/22 08:04:08;;;;;;;9.50;2.83;;;5.30;99.90;;;;;;5103379;28;20107;-90
2022/11/22 08:06:44;;;;;;;11.68;2.78;;;5.30;99.90;;;;;;5116163;28;20039;-90
2022/11/22 08:09:23;;;;;;;12.00;3.05;;;5.40;99.90;;;;;;5098670;28;20437;-89
2022/11/22 08:11:55;;;;;;;11.07;3.08;;;5.40;99.90;;;;;;5113935;28;20065;-90
2022/11/22 08:18:15;;;;;;;9.95;2.78;;;5.40;99.90;;;;;;5050400;28;20122;-88
2022/11/22 08:21:11;;;;;;;9.25;2.60;;;5.50;99.90;;;;;;5061517;28;20379;-88
2022/11/22 08:23:38;;;;;;;11.85;3.03;;;5.50;99.90;;;;;;5099968;28;20401;-89
2022/11/22 08:29:47;;;;;;;12.63;3.80;;;5.50;99.90;;;;;;5117888;28;20089;-89
2022/11/22 08:32:13;;;;;;;14.35;4.07;;;5.50;99.90;;;;;;5090624;28;20115;-89
2022/11/22 08:38:43;;;;;;;12.63;2.85;;;5.60;99.90;;;;;;5118092;28;20042;-89
2022/11/22 08:41:32;;;;;;;9.40;2.30;;;5.60;99.90;;;;;;5095812;28;20028;-88
2022/11/22 08:44:01;;;;;;;13.25;3.05;;;5.60;99.90;;;;;;5094788;28;20385;-88
2022/11/22 08:47:10;;;;;;;11.88;2.72;;;5.60;99.90;;;;;;5099016;28;20391;-88
2022/11/22 08:49:51;;;;;;;15.15;2.58;;;5.70;99.90;;;;;;5099932;28;20501;-88
2022/11/22 08:52:19;;;;;;;10.27;2.70;;;5.70;99.90;;;;;;5098399;28;20101;-88
2022/11/22 09:01:30;;;;;;;12.13;2.65;;;5.90;99.90;;;;;;5117527;28;20089;-88
2022/11/22 09:10:50;;;;;;;9.63;2.33;;;6.00;99.90;;;;;;5126233;27;20046;-89
2022/11/22 09:13:59;;;;;;;8.35;2.00;;;6.00;99.90;;;;;;5118631;27;20057;-88
2022/11/22 09:16:27;;;;;;;6.25;2.10;;;6.10;99.90;;;;;;5096005;28;20472;-87
2022/11/22 09:18:54;;;;;;;11.10;2.38;;;6.10;99.90;;;;;;5096630;28;20032;-89
2022/11/22 09:21:24;;;;;;;10.38;2.78;;;6.10;99.90;;;;;;5115650;28;20024;-88
2022/11/22 09:24:02;;;;;;;12.45;2.63;;;6.20;99.90;;;;;;5116519;27;20043;-88
2022/11/22 09:26:31;;;;;;;9.60;2.63;;;6.20;99.90;;;;;;5098401;28;20039;-88
2022/11/22 09:32:26;;;;;;;10.57;3.15;;;6.30;99.90;;;;;;5104304;27;20497;-89
2022/11/22 09:34:52;;;;;;;8.98;2.05;;;6.30;99.90;;;;;;5136768;27;20487;-89
2022/11/22 09:37:21;;;;;;;6.60;2.28;;;6.30;99.90;;;;;;5101101;28;20032;-90
2022/11/22 10:20:13;;;;;;;7.10;2.88;;;7.00;99.90;;;;;;5111586;28;20089;-88
2022/11/22 10:23:31;;;;;;;7.65;2.85;;;7.00;99.90;;;;;;5108714;28;20039;-88
2022/11/22 10:26:01;;;;;;;8.02;2.20;;;6.90;99.90;;;;;;5092788;28;20137;-87
2022/11/22 10:36:07;;;;;;;6.53;2.17;;;7.00;99.90;;;;;;5094745;28;20031;-87
2022/11/22 10:39:13;;;;;;;6.95;1.85;;;7.20;99.90;;;;;;5111783;27;20035;-87
2022/11/22 10:48:52;;;;;;;5.35;1.67;;;7.40;99.90;;;;;;5114997;28;20394;-88
2022/11/22 10:51:46;;;;;;;9.25;2.25;;;7.30;99.90;;;;;;5095918;28;20039;-88
2022/11/22 10:54:52;;;;;;;7.38;1.80;;;7.30;99.90;;;;;;5113753;28;20027;-87
2022/11/22 10:57:40;;;;;;;6.20;2.15;;;7.20;99.90;;;;;;5116715;27;20032;-87
2022/11/22 11:00:18;;;;;;;6.03;1.60;;;7.20;99.90;;;;;;5116841;27;20031;-87
2022/11/22 11:06:41;;;;;;;5.10;1.80;;;7.10;99.90;;;;;;5051881;28;20036;-88
2022/11/22 11:09:32;;;;;;;5.82;1.65;;;7.20;99.90;;;;;;5124275;27;20479;-88
2022/11/22 11:22:46;;;;;;;3.38;1.20;;;7.20;99.90;;;;;;5073955;28;20561;-87
2022/11/22 11:25:54;;;;;;;4.32;1.60;;;7.10;99.90;;;;;;5055558;28;20048;-87
2022/11/22 11:28:29;;;;;;;6.35;1.85;;;7.20;99.90;;;;;;4995081;28;20050;-87
2022/11/22 11:31:20;;;;;;;3.53;1.30;;;7.20;99.90;;;;;;5014291;28;20033;-87
2022/11/22 11:34:34;;;;;;;4.15;1.20;;;7.20;99.90;;;;;;5031979;28;20048;-87
2022/11/22 12:08:30;;;;;;;4.10;1.00;;;8.00;99.90;;;;;;5105078;28;20054;-88
2022/11/22 12:11:58;;;;;;;2.15;0.85;;;8.10;99.90;;;;;;5108274;28;20399;-87
2022/11/22 12:15:02;;;;;;;2.30;0.98;;;8.20;99.90;;;;;;5110457;28;20035;-88
2022/11/22 12:17:41;;;;;;;4.03;0.98;;;8.20;99.90;;;;;;5095636;28;20111;-87
2022/11/22 12:20:55;;;;;;;2.55;0.93;;;8.10;99.90;;;;;;5091528;28;20028;-89
2022/11/22 12:24:11;;;;;;;1.92;0.90;;;8.10;99.90;;;;;;5098180;28;20031;-86
2022/11/22 12:33:09;;;;;;;2.28;0.65;;;8.00;99.90;;;;;;5014126;28;20038;-86
2022/11/22 12:39:03;;;;;;;1.52;0.85;;;7.90;99.90;;;;;;5018914;28;20100;-86
2022/11/22 12:45:02;;;;;;;3.55;0.75;;;7.90;99.90;;;;;;5030735;28;20028;-88
2022/11/22 12:54:44;;;;;;;1.85;0.82;;;7.80;99.90;;;;;;5011277;28;20036;-85
2022/11/22 13:00:34;;;;;;;0.75;0.52;;;7.80;99.90;;;;;;4972204;28;20038;-86
2022/11/22 13:03:11;;;;;;;2.30;0.63;;;7.80;99.90;;;;;;5090483;28;20104;-87
2022/11/22 13:09:16;;;;;;;1.20;0.60;;;7.70;99.90;;;;;;5101282;28;20054;-87
2022/11/22 13:12:18;;;;;;;2.20;0.73;;;7.80;99.90;;;;;;5080610;28;20399;-88
2022/11/22 13:14:51;;;;;;;2.67;0.80;;;7.80;99.90;;;;;;5095145;28;20032;-86
2022/11/22 13:17:22;;;;;;;1.05;0.50;;;7.80;99.90;;;;;;5092611;28;20352;-86
2022/11/22 13:19:59;;;;;;;1.50;0.50;;;7.80;99.90;;;;;;5098895;28;20031;-87
2022/11/22 13:22:54;;;;;;;1.15;0.50;;;7.80;99.90;;;;;;5098454;28;20093;-89
2022/11/22 13:25:38;;;;;;;0.70;0.40;;;7.80;99.90;;;;;;5098448;27;20027;-87
2022/11/22 13:28:45;;;;;;;2.05;0.60;;;7.80;99.90;;;;;;5077857;28;20483;-87
2022/11/22 13:31:11;;;;;;;2.92;0.60;;;7.90;99.90;;;;;;5077591;28;20043;-87
2022/11/22 13:34:19;;;;;;;2.47;0.60;;;7.90;99.90;;;;;;5090132;28;20036;-90
2022/11/22 13:37:09;;;;;;;1.48;0.40;;;8.00;99.90;;;;;;5099915;27;20029;-90
2022/11/22 13:39:44;;;;;;;0.70;0.50;;;8.00;99.90;;;;;;5086946;28;20047;-89
2022/11/22 13:42:39;;;;;;;1.13;0.52;;;8.00;99.90;;;;;;5104367;28;20048;-87
2022/11/22 13:45:53;;;;;;;1.67;0.40;;;8.00;99.90;;;;;;5091100;28;20035;-88
2022/11/22 13:48:40;;;;;;;0.77;0.40;;;8.00;99.90;;;;;;4986529;28;20367;-87
2022/11/22 13:51:15;;;;;;;1.08;0.50;;;8.00;99.90;;;;;;5009728;28;20073;-88
2022/11/22 13:53:46;;;;;;;1.90;0.57;;;8.00;99.90;;;;;;4988797;28;20030;-88
2022/11/22 13:56:20;;;;;;;1.05;0.60;;;8.00;99.90;;;;;;4992040;28;20101;-87
2022/11/22 13:59:15;;;;;;;1.10;0.43;;;8.00;99.90;;;;;;5093591;28;20624;-90
2022/11/22 14:01:41;;;;;;;1.58;0.60;;;8.00;99.90;;;;;;5105435;27;20367;-88
2022/11/22 14:04:28;;;;;;;0.75;0.50;;;8.00;99.90;;;;;;5107819;27;20038;-89
2022/11/22 14:07:03;;;;;;;1.63;0.70;;;8.00;99.90;;;;;;5103475;28;20052;-89
2022/11/22 14:09:53;;;;;;;2.40;0.70;;;8.00;99.90;;;;;;5098254;28;20418;-89
2022/11/22 14:12:56;;;;;;;2.60;0.70;;;8.00;99.90;;;;;;5093926;28;20035;-88
2022/11/22 14:19:07;;;;;;;1.20;0.50;;;8.00;99.90;;;;;;5048678;28;20038;-90
2022/11/22 14:21:48;;;;;;;0.60;0.40;;;8.00;99.90;;;;;;5092031;28;20035;-90
2022/11/22 14:24:28;;;;;;;0.77;0.50;;;8.00;99.90;;;;;;5116621;27;20457;-90
2022/11/22 14:27:22;;;;;;;0.93;0.40;;;8.00;99.90;;;;;;5102714;27;20458;-89
2022/11/22 14:29:55;;;;;;;2.97;0.40;;;8.00;99.90;;;;;;5093568;27;20040;-89
2022/11/22 14:32:26;;;;;;;1.60;0.40;;;8.00;99.90;;;;;;5095019;28;20024;-89
2022/11/22 14:35:04;;;;;;;0.70;0.40;;;8.00;99.90;;;;;;5095998;27;20035;-88
2022/11/22 14:37:43;;;;;;;1.45;0.57;;;8.10;99.90;;;;;;5093488;28;20024;-89
2022/11/22 14:40:13;;;;;;;1.27;0.43;;;8.10;99.90;;;;;;5093047;27;20050;-89
2022/11/22 14:42:42;;;;;;;0.80;0.40;;;8.10;99.90;;;;;;5109487;27;20421;-88
2022/11/22 14:45:11;;;;;;;1.63;0.80;;;8.10;99.90;;;;;;5093067;27;20089;-91
2022/11/22 14:48:02;;;;;;;1.20;0.60;;;8.10;99.90;;;;;;5094655;28;20092;-88
2022/11/22 14:50:35;;;;;;;1.52;0.85;;;8.10;99.90;;;;;;5081026;28;20436;-89
2022/11/22 14:53:36;;;;;;;2.05;0.70;;;8.10;99.90;;;;;;5110850;28;20126;-88
2022/11/22 14:56:25;;;;;;;2.10;0.70;;;8.10;99.90;;;;;;5087010;28;20080;-86
2022/11/22 15:00:00;;;;;;;1.95;0.50;;;8.10;99.90;;;;;;5073733;28;20028;-89
2022/11/22 15:02:48;;;;;;;1.33;0.63;;;8.10;99.90;;;;;;5101907;28;20034;-90
2022/11/22 15:05:29;;;;;;;0.98;0.50;;;8.10;99.90;;;;;;5081300;28;20114;-88
2022/11/22 15:08:01;;;;;;;0.88;0.55;;;8.10;99.90;;;;;;5114729;27;20043;-89
2022/11/22 15:11:13;;;;;;;1.07;0.50;;;8.00;99.90;;;;;;5095564;28;20487;-88
2022/11/22 15:14:18;;;;;;;1.25;0.50;;;8.00;99.90;;;;;;5094870;27;20062;-89
2022/11/22 15:16:44;;;;;;;0.70;0.40;;;8.10;99.90;;;;;;5082753;28;20035;-87
2022/11/22 15:19:41;;;;;;;1.15;0.40;;;8.00;99.90;;;;;;5096007;28;20096;-86
2022/11/22 15:22:57;;;;;;;1.50;0.70;;;8.00;99.90;;;;;;5096254;28;20069;-87
2022/11/22 15:25:22;;;;;;;0.50;0.40;;;8.00;99.90;;;;;;5094019;28;20089;-91
2022/11/22 15:27:49;;;;;;;1.25;0.40;;;8.00;99.90;;;;;;5094345;28;20056;-88
2022/11/22 15:30:20;;;;;;;0.77;0.50;;;8.00;99.90;;;;;;5092136;28;20122;-89
2022/11/22 15:32:54;;;;;;;2.38;0.50;;;8.00;99.90;;;;;;5094452;28;20039;-89
2022/11/22 15:38:28;;;;;;;0.95;0.50;;;8.00;99.90;;;;;;5073857;28;20495;-91
2022/11/22 15:41:05;;;;;;;1.13;0.47;;;8.00;99.90;;;;;;5094313;28;20096;-89
2022/11/22 15:43:32;;;;;;;1.08;0.47;;;8.00;99.90;;;;;;5110862;27;20034;-89
2022/11/22 15:45:59;;;;;;;1.83;0.70;;;8.00;99.90;;;;;;5094178;28;20061;-90
2022/11/22 15:48:35;;;;;;;1.50;0.70;;;8.00;99.90;;;;;;5093748;28;20803;-89
2022/11/22 15:51:22;;;;;;;1.60;0.80;;;8.00;99.90;;;;;;5110560;28;20055;-89
2022/11/22 15:54:04;;;;;;;1.05;0.60;;;8.00;99.90;;;;;;5093111;28;20510;-89
2022/11/22 15:56:56;;;;;;;0.70;0.50;;;8.00;99.90;;;;;;5105775;27;20040;-89
2022/11/22 15:59:47;;;;;;;2.03;0.60;;;8.00;99.90;;;;;;5096631;28;20061;-89
2022/11/22 16:02:24;;;;;;;2.10;0.68;;;7.90;99.90;;;;;;5079370;28;20693;-90
2022/11/22 16:05:08;;;;;;;0.98;0.60;;;7.90;99.90;;;;;;5092884;28;20076;-88
2022/11/22 16:07:44;;;;;;;2.35;0.70;;;7.90;99.90;;;;;;5096304;28;20086;-88
2022/11/22 16:10:38;;;;;;;1.20;0.80;;;7.80;99.90;;;;;;5096725;28;20071;-89
2022/11/22 16:13:19;;;;;;;1.50;0.68;;;7.70;99.90;;;;;;5090668;28;20062;-89
2022/11/22 16:16:11;;;;;;;1.83;0.73;;;7.70;99.90;;;;;;5089174;28;20051;-90
2022/11/22 16:18:39;;;;;;;1.38;0.60;;;7.70;99.90;;;;;;5087897;28;20039;-88
2022/11/22 16:21:27;;;;;;;1.73;0.80;;;7.70;99.90;;;;;;5105120;28;20046;-89
2022/11/22 16:24:31;;;;;;;1.23;0.90;;;7.70;99.90;;;;;;5090103;28;20147;-89
2022/11/22 16:27:35;;;;;;;;;;;;;;;;;;;;;
2022/11/22 16:30:16;;;;;;;2.88;1.30;;;7.60;99.90;;;;;;5093666;28;20095;-89
2022/11/22 16:33:34;;;;;;;3.28;1.27;;;7.60;99.90;;;;;;5093198;28;20040;-89
2022/11/22 16:36:24;;;;;;;5.45;1.40;;;7.60;99.90;;;;;;5086883;28;20063;-88
2022/11/22 16:38:50;;;;;;;2.28;1.25;;;7.60;99.90;;;;;;5089888;28;20161;-88
2022/11/22 16:41:22;;;;;;;1.55;1.05;;;7.60;99.90;;;;;;5110554;27;20051;-89
2022/11/22 16:43:51;;;;;;;1.90;1.23;;;7.50;99.90;;;;;;5100255;28;20112;-88
2022/11/22 16:46:59;;;;;;;2.05;1.20;;;7.50;99.90;;;;;;5101332;28;20044;-89
2022/11/22 16:49:46;;;;;;;3.30;1.40;;;7.40;99.90;;;;;;5089928;28;20039;-89
2022/11/22 16:52:16;;;;;;;3.22;1.33;;;7.40;99.90;;;;;;5096549;28;20039;-89
2022/11/22 16:54:53;;;;;;;2.03;1.10;;;7.30;99.90;;;;;;5093796;27;20027;-88
2022/11/22 16:57:19;;;;;;;2.58;1.30;;;7.30;99.90;;;;;;5108011;27;20039;-91